Time;durP1;ratioP1;P1;durP2;ratioP2;P2;SDS_P1;SDS_P2;PMS_P1;PMS_P2;Temp;Humidity;BMP_temperature;BMP_pressure;BME280_temperature;BME280_humidity;BME280_pressure;Samples;Min_cycle;Max_cycle;Signal;HPM_P1;HPM_P2
2022/06/11 00:01:40;;;;;;;9.40;4.82;;;15.60;79.50;;;;;;5003758;28;20034;-62
2022/06/11 00:04:10;;;;;;;8.48;4.25;;;15.60;79.90;;;;;;4990719;28;20056;-62
2022/06/11 00:06:41;;;;;;;8.30;4.35;;;15.60;80.00;;;;;;5008447;28;20046;-62
2022/06/11 00:09:07;;;;;;;6.53;4.13;;;15.60;80.00;;;;;;5029920;28;20021;-62
2022/06/11 00:11:33;;;;;;;5.07;3.88;;;15.60;80.20;;;;;;4989727;28;20034;-62
2022/06/11 00:13:58;;;;;;;6.07;3.90;;;15.60;81.10;;;;;;5009285;28;20037;-62
2022/06/11 00:16:25;;;;;;;4.47;3.65;;;15.60;78.50;;;;;;5009238;28;20087;-62
2022/06/11 00:18:56;;;;;;;9.15;3.80;;;15.60;77.60;;;;;;5029090;28;20397;-61
2022/06/11 00:21:25;;;;;;;7.32;4.10;;;15.60;77.50;;;;;;5006228;28;20038;-62
2022/06/11 00:23:50;;;;;;;5.28;3.88;;;15.60;78.20;;;;;;5029103;28;20087;-63
2022/06/11 00:26:16;;;;;;;4.82;3.67;;;15.60;77.20;;;;;;4991716;28;20046;-63
2022/06/11 00:28:42;;;;;;;7.03;3.38;;;15.60;77.50;;;;;;5009087;28;20056;-62
2022/06/11 00:31:10;;;;;;;9.07;3.45;;;15.60;77.90;;;;;;5011124;28;20034;-62
2022/06/11 00:33:36;;;;;;;4.10;3.08;;;15.70;79.20;;;;;;5028608;28;20044;-61
2022/06/11 00:36:03;;;;;;;4.35;3.05;;;15.70;78.60;;;;;;4993577;28;20030;-61
2022/06/11 00:38:29;;;;;;;5.95;2.88;;;15.70;78.30;;;;;;5028472;28;20061;-62
2022/06/11 00:40:55;;;;;;;7.97;3.90;;;15.70;78.60;;;;;;4997632;28;20069;-62
2022/06/11 00:43:24;;;;;;;4.82;3.28;;;15.70;78.60;;;;;;5009716;28;20029;-62
2022/06/11 00:45:49;;;;;;;5.32;3.35;;;15.80;80.70;;;;;;5013736;28;20033;-62
2022/06/11 00:48:25;;;;;;;5.25;3.30;;;15.80;81.30;;;;;;5028311;28;20033;-62
2022/06/11 00:51:02;;;;;;;5.55;2.88;;;15.80;82.30;;;;;;5001515;28;20510;-61
2022/06/11 00:53:32;;;;;;;6.03;3.38;;;15.80;83.60;;;;;;5010517;28;20105;-62
2022/06/11 00:55:58;;;;;;;4.70;3.20;;;15.80;85.50;;;;;;5028330;28;20083;-62
2022/06/11 00:58:29;;;;;;;4.80;2.85;;;15.80;84.40;;;;;;4991663;28;20049;-62
2022/06/11 01:00:58;;;;;;;5.75;3.17;;;15.80;85.00;;;;;;4985695;28;20026;-62
2022/06/11 01:03:35;;;;;;;5.05;3.40;;;15.80;84.50;;;;;;5010102;28;20030;-62
2022/06/11 01:06:08;;;;;;;3.25;2.50;;;15.80;86.50;;;;;;4989479;28;20027;-62
2022/06/11 01:08:48;;;;;;;3.78;2.47;;;15.90;87.30;;;;;;5005398;28;20033;-62
2022/06/11 01:11:39;;;;;;;4.50;2.80;;;15.90;88.40;;;;;;4989650;28;20026;-62
2022/06/11 01:14:25;;;;;;;4.72;3.20;;;15.90;89.60;;;;;;4989407;28;20470;-62
2022/06/11 01:17:04;;;;;;;4.65;3.25;;;15.90;91.20;;;;;;5026842;28;20025;-62
2022/06/11 01:20:09;;;;;;;3.28;2.97;;;15.90;91.10;;;;;;5028727;28;20029;-63
2022/06/11 01:23:06;;;;;;;4.93;2.80;;;15.90;91.90;;;;;;5006612;28;20080;-62
2022/06/11 01:26:04;;;;;;;3.30;2.50;;;15.90;90.70;;;;;;4989289;28;20030;-62
2022/06/11 01:28:49;;;;;;;4.10;2.55;;;15.90;92.30;;;;;;5004500;28;20018;-62
2022/06/11 01:31:26;;;;;;;3.90;3.08;;;15.80;92.50;;;;;;4989215;28;20034;-62
2022/06/11 01:34:00;;;;;;;6.00;2.70;;;15.90;93.60;;;;;;4989148;28;20030;-62
2022/06/11 01:36:35;;;;;;;4.75;2.92;;;15.80;92.40;;;;;;4987833;28;20402;-61
2022/06/11 01:39:17;;;;;;;3.17;2.83;;;15.80;92.50;;;;;;5026428;28;20033;-62
2022/06/11 01:41:47;;;;;;;6.57;2.67;;;15.80;92.30;;;;;;5018338;28;20049;-63
2022/06/11 01:44:24;;;;;;;3.42;2.83;;;15.80;92.50;;;;;;5001148;28;20040;-62
2022/06/11 01:46:52;;;;;;;3.65;2.60;;;15.90;92.80;;;;;;5032663;28;20160;-62
2022/06/11 01:49:20;;;;;;;3.75;2.63;;;15.80;92.50;;;;;;5011260;28;20508;-63
2022/06/11 01:52:17;;;;;;;6.50;3.03;;;15.90;93.30;;;;;;5012862;28;20095;-62
2022/06/11 01:54:42;;;;;;;;;;;15.80;94.20;;;;;;5030378;28;20083;-62
2022/06/11 01:57:29;;;;;;;3.47;2.53;;;15.80;98.00;;;;;;5013346;28;20293;-62
2022/06/11 02:00:28;;;;;;;3.92;2.40;;;15.70;94.10;;;;;;5006555;28;20621;-62
2022/06/11 02:03:18;;;;;;;4.38;3.00;;;15.70;95.00;;;;;;4993012;28;20653;-63
2022/06/11 02:06:15;;;;;;;3.55;2.70;;;15.60;95.90;;;;;;5009173;28;20389;-62
2022/06/11 02:08:56;;;;;;;4.28;2.53;;;15.60;95.40;;;;;;5030428;28;20028;-62
2022/06/11 02:11:35;;;;;;;3.08;2.00;;;15.50;95.40;;;;;;5032396;28;20417;-63
2022/06/11 02:14:12;;;;;;;3.03;2.40;;;15.60;95.80;;;;;;4996934;28;20440;-62
2022/06/11 02:16:55;;;;;;;2.28;2.08;;;15.50;95.10;;;;;;5032154;28;20030;-62
2022/06/11 02:19:26;;;;;;;3.28;2.55;;;15.50;95.10;;;;;;5004410;28;20053;-62
2022/06/11 02:22:04;;;;;;;6.40;2.50;;;15.50;94.60;;;;;;5032184;28;20018;-62
2022/06/11 02:24:37;;;;;;;3.22;2.03;;;15.50;95.50;;;;;;5006539;28;20505;-62
2022/06/11 02:27:14;;;;;;;6.07;2.60;;;15.50;94.90;;;;;;4992516;28;20050;-62
2022/06/11 02:29:40;;;;;;;5.03;2.50;;;15.50;94.90;;;;;;5009129;28;20033;-62
2022/06/11 02:32:10;;;;;;;3.85;2.90;;;15.40;95.60;;;;;;5012522;28;20080;-62
2022/06/11 02:34:44;;;;;;;5.65;2.50;;;15.40;96.20;;;;;;5029673;28;20038;-62
2022/06/11 02:37:27;;;;;;;3.45;2.80;;;15.40;96.50;;;;;;4992586;28;20704;-62
2022/06/11 02:39:56;;;;;;;2.78;2.22;;;15.40;96.70;;;;;;5013649;28;20390;-61
2022/06/11 02:42:24;;;;;;;3.03;2.22;;;15.30;97.10;;;;;;5011447;28;20180;-61
2022/06/11 02:44:50;;;;;;;3.53;2.60;;;15.30;97.10;;;;;;5017791;28;20101;-61
2022/06/11 02:47:16;;;;;;;8.13;3.13;;;15.20;97.30;;;;;;5031015;28;20037;-61
2022/06/11 02:49:42;;;;;;;8.68;3.53;;;15.20;98.30;;;;;;5010026;28;20026;-62
2022/06/11 02:52:14;;;;;;;5.75;2.83;;;15.10;99.90;;;;;;5030637;28;20036;-63
2022/06/11 02:54:40;;;;;;;3.72;2.42;;;15.10;99.90;;;;;;5008924;28;20021;-62
2022/06/11 02:57:08;;;;;;;4.93;3.15;;;15.00;99.90;;;;;;5011873;28;20127;-61
2022/06/11 02:59:33;;;;;;;5.47;3.03;;;15.00;99.90;;;;;;5021356;28;20505;-62
2022/06/11 03:01:59;;;;;;;3.47;2.90;;;14.90;99.90;;;;;;5011850;28;20049;-63
2022/06/11 03:04:28;;;;;;;7.93;3.15;;;14.90;99.90;;;;;;5028498;28;20029;-63
2022/06/11 03:06:53;;;;;;;2.90;2.65;;;14.90;99.90;;;;;;5011270;28;20042;-63
2022/06/11 03:09:23;;;;;;;5.50;2.67;;;14.90;99.90;;;;;;5028542;28;20036;-63
2022/06/11 03:11:49;;;;;;;2.85;2.60;;;14.90;99.90;;;;;;5031178;28;20548;-62
2022/06/11 03:14:15;;;;;;;3.90;2.60;;;14.90;99.90;;;;;;5009746;28;20117;-62
2022/06/11 03:16:42;;;;;;;5.18;3.05;;;15.00;99.90;;;;;;5011218;28;20224;-62
2022/06/11 03:19:09;;;;;;;4.85;2.60;;;15.00;99.90;;;;;;5028363;28;20112;-62
2022/06/11 03:21:35;;;;;;;5.85;3.03;;;15.10;99.90;;;;;;5030843;28;20037;-62
2022/06/11 03:24:01;;;;;;;2.47;2.28;;;15.10;99.90;;;;;;5009443;28;20030;-62
2022/06/11 03:26:26;;;;;;;3.60;2.92;;;15.20;99.90;;;;;;5010937;28;20038;-62
2022/06/11 03:28:52;;;;;;;3.42;2.80;;;15.20;99.90;;;;;;5027966;28;20393;-61
2022/06/11 03:31:18;;;;;;;4.28;2.65;;;15.20;99.80;;;;;;5030718;28;20029;-62
2022/06/11 03:33:44;;;;;;;4.03;3.00;;;15.40;98.90;;;;;;5009429;28;20543;-62
2022/06/11 03:36:12;;;;;;;3.10;2.72;;;15.50;98.40;;;;;;5010899;28;20068;-63
2022/06/11 03:38:39;;;;;;;3.97;2.55;;;15.50;97.90;;;;;;5028023;28;20036;-63
2022/06/11 03:41:05;;;;;;;3.72;2.83;;;15.60;98.30;;;;;;5025379;28;20137;-62
2022/06/11 03:43:32;;;;;;;3.75;3.00;;;15.70;97.80;;;;;;5008937;28;20097;-62
2022/06/11 03:45:58;;;;;;;2.88;2.47;;;15.80;97.30;;;;;;5010656;28;20547;-63
2022/06/11 03:48:25;;;;;;;3.33;2.50;;;16.70;94.20;;;;;;5029821;28;20041;-63
2022/06/11 03:50:51;;;;;;;3.35;2.50;;;16.50;93.20;;;;;;5028516;28;20025;-63
2022/06/11 03:53:17;;;;;;;3.60;3.05;;;16.60;93.20;;;;;;5011160;28;20560;-63
2022/06/11 03:55:43;;;;;;;4.70;3.00;;;16.50;93.30;;;;;;5009221;28;20041;-63
2022/06/11 03:58:11;;;;;;;5.53;2.60;;;16.60;93.10;;;;;;5029723;28;20052;-63
2022/06/11 04:03:24;;;;;;;5.55;3.20;;;16.70;92.50;;;;;;4991139;28;20037;-63
2022/06/11 04:05:52;;;;;;;4.57;2.58;;;16.80;91.80;;;;;;5007870;28;20034;-59
2022/06/11 04:08:18;;;;;;;3.90;2.28;;;16.90;91.10;;;;;;5010615;28;20021;-73
2022/06/11 04:10:45;;;;;;;4.78;2.80;;;17.10;90.00;;;;;;5027845;28;20037;-73
2022/06/11 04:13:12;;;;;;;4.30;2.80;;;17.40;87.60;;;;;;5025944;28;20041;-74
2022/06/11 04:15:40;;;;;;;2.97;2.13;;;18.60;80.40;;;;;;5007784;28;20053;-74
2022/06/11 04:18:07;;;;;;;4.00;2.67;;;19.50;70.80;;;;;;5001678;28;20046;-74
2022/06/11 04:20:33;;;;;;;3.78;2.50;;;21.20;56.50;;;;;;5022266;28;20482;-74
2022/06/11 04:23:00;;;;;;;5.80;2.78;;;20.90;52.80;;;;;;5021983;28;20095;-74
2022/06/11 04:25:26;;;;;;;5.45;2.50;;;20.40;52.20;;;;;;5001314;28;20084;-74
2022/06/11 04:27:53;;;;;;;5.05;2.47;;;20.00;52.60;;;;;;5008885;28;20034;-74
2022/06/11 04:30:21;;;;;;;3.63;2.42;;;19.80;54.60;;;;;;4996233;28;20200;-73
2022/06/11 04:32:46;;;;;;;8.05;3.08;;;19.60;55.80;;;;;;5023138;28;20489;-74
2022/06/11 04:35:12;;;;;;;5.20;2.38;;;19.50;55.90;;;;;;4996962;28;20045;-74
2022/06/11 04:37:38;;;;;;;4.20;2.55;;;19.30;55.10;;;;;;5014157;28;20073;-74
2022/06/11 04:40:07;;;;;;;3.38;2.45;;;19.10;56.20;;;;;;5018931;28;20537;-74
2022/06/11 04:42:33;;;;;;;5.60;2.50;;;19.00;56.30;;;;;;5018061;28;20049;-74
2022/06/11 04:45:00;;;;;;;3.42;2.58;;;19.00;57.50;;;;;;4993269;28;20034;-74
2022/06/11 04:47:28;;;;;;;4.07;2.20;;;18.90;55.50;;;;;;5015195;28;20037;-74
2022/06/11 04:49:55;;;;;;;3.83;2.35;;;18.80;54.80;;;;;;5016162;28;20606;-74
2022/06/11 04:52:22;;;;;;;5.82;2.40;;;18.80;55.80;;;;;;5023188;28;20047;-74
2022/06/11 04:54:47;;;;;;;4.78;2.70;;;18.80;54.80;;;;;;5011015;28;20038;-73
2022/06/11 04:57:13;;;;;;;6.43;2.35;;;18.80;53.30;;;;;;5018281;28;20128;-73
2022/06/11 04:59:38;;;;;;;5.70;2.92;;;18.80;53.50;;;;;;5004830;28;20030;-74
2022/06/11 05:02:04;;;;;;;5.75;2.20;;;18.80;53.80;;;;;;5015490;28;20033;-74
2022/06/11 05:04:30;;;;;;;2.70;1.85;;;18.90;53.90;;;;;;5010758;28;20034;-73
2022/06/11 05:06:56;;;;;;;3.20;2.20;;;18.90;53.70;;;;;;5007256;28;20495;-74
2022/06/11 05:09:24;;;;;;;3.38;2.58;;;19.00;52.40;;;;;;5028497;28;20029;-63
2022/06/11 05:11:51;;;;;;;4.72;2.50;;;19.00;51.50;;;;;;5005729;28;20515;-62
2022/06/11 05:14:17;;;;;;;3.53;2.58;;;19.10;51.50;;;;;;5008883;28;20025;-63
2022/06/11 05:16:44;;;;;;;8.05;2.72;;;19.20;50.60;;;;;;5025073;28;20108;-61
2022/06/11 05:19:13;;;;;;;4.15;2.60;;;19.30;49.70;;;;;;5028290;28;20029;-62
2022/06/11 05:21:41;;;;;;;5.47;2.65;;;19.30;49.70;;;;;;5009216;28;20685;-63
2022/06/11 05:24:07;;;;;;;4.28;2.40;;;19.40;50.00;;;;;;4998227;28;20026;-63
2022/06/11 05:26:36;;;;;;;4.35;2.50;;;19.50;49.70;;;;;;5012608;28;20037;-63
2022/06/11 05:29:04;;;;;;;5.32;2.80;;;19.60;48.90;;;;;;4997814;28;20030;-63
2022/06/11 05:31:29;;;;;;;4.78;2.13;;;19.60;48.60;;;;;;5009511;28;20063;-63
2022/06/11 05:33:55;;;;;;;5.10;2.47;;;19.70;48.50;;;;;;4995821;28;20565;-63
2022/06/11 05:36:20;;;;;;;4.60;2.30;;;19.80;46.70;;;;;;5007146;28;20026;-63
2022/06/11 05:38:47;;;;;;;3.47;2.10;;;19.90;47.70;;;;;;4999054;28;20624;-62
2022/06/11 05:41:13;;;;;;;3.72;2.28;;;20.00;47.40;;;;;;5000764;28;20103;-62
2022/06/11 05:43:39;;;;;;;4.57;2.65;;;20.00;46.70;;;;;;5006198;28;20437;-62
2022/06/11 05:46:14;;;;;;;4.05;2.55;;;20.10;46.30;;;;;;5001136;28;20034;-62
2022/06/11 05:48:45;;;;;;;3.67;2.40;;;20.20;44.30;;;;;;5002639;28;20042;-62
2022/06/11 05:51:20;;;;;;;3.30;1.98;;;20.50;44.40;;;;;;5011081;28;20469;-62
2022/06/11 05:53:49;;;;;;;4.25;2.60;;;20.70;43.20;;;;;;5017332;28;20116;-62
2022/06/11 05:56:16;;;;;;;4.55;2.15;;;20.80;43.10;;;;;;5009164;28;20022;-63
2022/06/11 05:58:52;;;;;;;4.35;2.30;;;20.90;40.70;;;;;;5010454;28;20026;-61
2022/06/11 06:01:21;;;;;;;3.03;2.17;;;21.10;40.70;;;;;;5008702;28;20405;-62
2022/06/11 06:03:46;;;;;;;3.60;2.25;;;21.30;41.40;;;;;;5010007;28;21036;-61
2022/06/11 06:06:12;;;;;;;4.80;2.33;;;21.60;40.40;;;;;;5012206;28;20038;-62
2022/06/11 06:08:38;;;;;;;2.55;1.92;;;21.90;39.30;;;;;;5012233;28;20034;-61
2022/06/11 06:11:03;;;;;;;5.65;2.05;;;22.20;38.40;;;;;;5015978;28;20036;-62
2022/06/11 06:13:47;;;;;;;4.28;2.00;;;22.40;37.60;;;;;;5005214;28;20033;-61
2022/06/11 06:16:22;;;;;;;4.25;2.10;;;22.70;36.40;;;;;;5008436;28;20037;-62
2022/06/11 06:18:48;;;;;;;2.53;1.90;;;23.50;33.30;;;;;;5014629;28;20033;-62
2022/06/11 06:21:16;;;;;;;4.93;1.75;;;27.50;25.50;;;;;;5009671;28;20038;-62
2022/06/11 06:23:41;;;;;;;4.13;1.70;;;28.30;22.20;;;;;;5006012;28;20041;-62
2022/06/11 06:26:07;;;;;;;3.00;1.80;;;29.70;19.60;;;;;;5010530;28;20034;-62
2022/06/11 06:28:34;;;;;;;5.20;1.83;;;29.90;17.00;;;;;;5010969;28;20026;-62
2022/06/11 06:31:00;;;;;;;2.92;1.52;;;29.80;17.20;;;;;;5015463;28;20018;-63
2022/06/11 06:33:33;;;;;;;5.78;1.63;;;30.00;16.20;;;;;;5022249;28;20034;-63
2022/06/11 06:36:00;;;;;;;3.08;1.83;;;30.40;12.80;;;;;;5004325;28;20030;-62
2022/06/11 06:38:26;;;;;;;2.95;1.38;;;30.60;15.00;;;;;;5016451;28;20549;-62
2022/06/11 06:40:52;;;;;;;6.20;1.48;;;30.70;14.60;;;;;;5025429;28;20044;-62
2022/06/11 06:43:18;;;;;;;4.57;1.77;;;30.50;14.10;;;;;;5018115;28;20041;-62
2022/06/11 06:45:44;;;;;;;2.90;1.40;;;30.10;13.80;;;;;;5007655;28;20034;-61
2022/06/11 06:48:09;;;;;;;2.40;1.38;;;29.90;14.10;;;;;;5020381;28;20036;-61
2022/06/11 06:50:35;;;;;;;2.38;1.40;;;29.60;14.00;;;;;;4994311;28;20526;-62
2022/06/11 06:53:01;;;;;;;3.85;1.60;;;29.50;14.10;;;;;;5020529;28;20029;-61
2022/06/11 06:55:26;;;;;;;2.72;1.50;;;29.50;13.70;;;;;;5010385;28;20034;-62
2022/06/11 06:57:52;;;;;;;2.60;1.95;;;29.50;13.60;;;;;;5018218;28;20038;-62
2022/06/11 07:00:18;;;;;;;2.47;1.45;;;29.50;12.70;;;;;;5017821;28;20034;-62
2022/06/11 07:02:45;;;;;;;2.40;1.50;;;29.30;12.80;;;;;;5012012;28;20395;-61
2022/06/11 07:05:12;;;;;;;4.40;1.50;;;29.30;12.10;;;;;;5014472;28;20030;-62
2022/06/11 07:07:39;;;;;;;4.20;1.60;;;29.50;12.20;;;;;;5004325;28;20069;-62
2022/06/11 07:10:06;;;;;;;2.63;1.58;;;29.90;10.90;;;;;;5030313;28;20045;-61
2022/06/11 07:12:32;;;;;;;2.80;1.70;;;30.20;10.20;;;;;;4992675;28;20026;-61
2022/06/11 07:14:58;;;;;;;3.28;1.58;;;30.40;10.40;;;;;;5010892;28;20673;-62
2022/06/11 07:17:25;;;;;;;3.65;1.60;;;30.70;10.00;;;;;;5012302;28;20033;-62
2022/06/11 07:19:58;;;;;;;4.80;1.85;;;31.10;9.40;;;;;;5030575;28;20132;-62
2022/06/11 07:22:32;;;;;;;1.77;1.50;;;31.50;8.40;;;;;;5006426;28;20108;-62
2022/06/11 07:24:59;;;;;;;11.85;3.85;;;31.30;7.80;;;;;;5031241;28;20560;-62
2022/06/11 07:27:28;;;;;;;3.50;2.03;;;31.40;9.00;;;;;;4993233;28;20022;-61
2022/06/11 07:30:02;;;;;;;4.90;2.03;;;31.30;8.30;;;;;;5010944;28;20795;-61
2022/06/11 07:32:35;;;;;;;3.77;1.70;;;31.30;8.10;;;;;;5007124;28;20100;-61
2022/06/11 07:35:01;;;;;;;5.78;1.70;;;31.10;8.00;;;;;;4991459;28;20045;-62
2022/06/11 07:37:27;;;;;;;6.40;1.98;;;30.80;8.20;;;;;;5011236;28;20026;-62
2022/06/11 07:39:52;;;;;;;4.47;1.50;;;30.80;8.20;;;;;;5016587;28;20084;-62
2022/06/11 07:42:18;;;;;;;2.45;1.35;;;30.60;8.20;;;;;;5029440;28;20093;-62
2022/06/11 07:44:43;;;;;;;3.38;1.23;;;30.50;8.40;;;;;;5009605;28;20113;-62
2022/06/11 07:47:09;;;;;;;6.78;1.48;;;30.30;8.40;;;;;;5029482;28;20443;-61
2022/06/11 07:49:34;;;;;;;2.35;1.20;;;30.40;8.40;;;;;;5009545;28;20026;-62
2022/06/11 07:52:00;;;;;;;2.72;1.40;;;30.30;8.00;;;;;;5029927;28;20052;-62
2022/06/11 07:54:26;;;;;;;3.08;1.50;;;30.10;7.60;;;;;;5009327;28;20575;-61
2022/06/11 07:56:51;;;;;;;5.25;1.60;;;30.10;7.60;;;;;;5029892;28;20041;-61
2022/06/11 07:59:16;;;;;;;1.20;0.90;;;30.20;7.60;;;;;;5008578;28;20433;-61
2022/06/11 08:01:42;;;;;;;4.03;1.25;;;30.30;7.30;;;;;;5007189;28;20026;-61
2022/06/11 08:04:07;;;;;;;3.60;1.42;;;30.60;7.10;;;;;;5027625;28;20079;-61
2022/06/11 08:06:33;;;;;;;4.82;1.20;;;30.80;6.60;;;;;;5030225;28;20122;-62
2022/06/11 08:08:59;;;;;;;3.13;1.38;;;30.90;5.90;;;;;;5009137;28;20413;-61
2022/06/11 08:11:24;;;;;;;4.72;1.70;;;31.10;5.60;;;;;;5010289;28;20073;-62
2022/06/11 08:13:50;;;;;;;4.00;1.40;;;31.10;5.20;;;;;;5027205;28;20031;-61
2022/06/11 08:16:15;;;;;;;1.90;1.08;;;31.10;5.20;;;;;;5030236;28;20032;-62
2022/06/11 08:18:42;;;;;;;3.20;1.42;;;31.00;4.90;;;;;;5008885;28;20781;-61
2022/06/11 08:21:08;;;;;;;2.15;1.10;;;30.60;5.00;;;;;;5010376;28;20108;-61
2022/06/11 08:23:34;;;;;;;2.05;1.20;;;30.50;5.20;;;;;;5027007;28;20061;-61
2022/06/11 08:26:00;;;;;;;2.53;1.40;;;30.40;5.30;;;;;;5029897;28;20033;-61
2022/06/11 08:28:26;;;;;;;2.80;1.30;;;30.30;5.40;;;;;;5010789;28;20582;-61
2022/06/11 08:30:51;;;;;;;3.47;1.40;;;30.40;5.50;;;;;;5008050;28;20418;-60
2022/06/11 08:33:17;;;;;;;2.50;1.40;;;30.60;5.30;;;;;;5028916;28;20041;-61
2022/06/11 08:35:43;;;;;;;1.88;1.10;;;30.50;5.20;;;;;;4990129;28;20034;-62
2022/06/11 08:38:09;;;;;;;2.28;1.30;;;30.50;5.00;;;;;;5009301;28;20116;-61
2022/06/11 08:40:41;;;;;;;2.08;1.25;;;30.40;5.20;;;;;;5010287;28;20037;-61
2022/06/11 08:43:28;;;;;;;3.63;1.15;;;30.50;5.40;;;;;;5029635;28;20021;-61
2022/06/11 08:45:58;;;;;;;3.80;1.55;;;30.80;4.90;;;;;;4990173;28;20490;-61
2022/06/11 08:48:43;;;;;;;3.47;1.00;;;31.40;4.60;;;;;;5027429;28;20037;-62
2022/06/11 08:51:23;;;;;;;2.47;1.13;;;32.10;3.90;;;;;;4990200;28;20037;-61
2022/06/11 08:53:51;;;;;;;3.83;1.30;;;32.40;3.20;;;;;;4992858;28;20037;-61
2022/06/11 08:56:37;;;;;;;2.58;1.13;;;32.60;1.80;;;;;;5029361;28;20711;-62
2022/06/11 08:59:26;;;;;;;5.32;1.80;;;32.50;1.80;;;;;;4992797;28;20026;-61
2022/06/11 09:02:15;;;;;;;2.45;1.27;;;32.70;2.20;;;;;;5002985;28;20022;-61
2022/06/11 09:04:43;;;;;;;3.33;1.23;;;32.80;2.00;;;;;;5027414;28;20501;-62
2022/06/11 09:07:33;;;;;;;1.88;1.30;;;33.10;2.10;;;;;;5009946;28;20034;-61
2022/06/11 09:10:19;;;;;;;2.40;1.08;;;33.30;1.00;;;;;;5005026;28;20397;-62
2022/06/11 09:12:50;;;;;;;2.17;1.23;;;33.00;1.10;;;;;;5029136;28;20034;-61
2022/06/11 09:15:39;;;;;;;2.72;1.30;;;32.80;1.00;;;;;;5008027;28;20083;-62
2022/06/11 09:18:36;;;;;;;2.42;1.00;;;32.60;1.00;;;;;;4984218;28;20046;-62
2022/06/11 09:21:35;;;;;;;3.88;1.10;;;32.40;1.20;;;;;;5011493;28;20088;-62
2022/06/11 09:24:24;;;;;;;2.60;1.20;;;32.40;1.00;;;;;;5029090;28;20033;-61
2022/06/11 09:27:04;;;;;;;2.05;1.10;;;32.00;1.00;;;;;;4989586;28;20040;-62
2022/06/11 09:29:45;;;;;;;2.75;1.20;;;31.70;1.30;;;;;;4990291;28;20132;-62
2022/06/11 09:32:23;;;;;;;2.65;0.98;;;31.60;1.00;;;;;;5027800;28;20113;-63
2022/06/11 09:35:07;;;;;;;2.55;1.08;;;31.30;1.90;;;;;;4996235;28;20401;-61
2022/06/11 09:37:59;;;;;;;2.15;1.27;;;31.50;1.80;;;;;;5028969;28;20018;-62
2022/06/11 09:40:49;;;;;;;3.17;1.13;;;31.90;1.00;;;;;;5006855;28;20046;-61
2022/06/11 09:43:28;;;;;;;2.72;0.95;;;32.20;1.10;;;;;;4989785;28;20037;-62
2022/06/11 09:46:04;;;;;;;3.70;1.55;;;32.50;1.00;;;;;;5001144;28;20461;-62
2022/06/11 09:49:07;;;;;;;3.55;1.20;;;32.70;1.00;;;;;;5028896;28;20025;-62
2022/06/11 09:51:42;;;;;;;2.28;1.10;;;32.80;1.00;;;;;;5006297;28;20034;-62
2022/06/11 09:54:16;;;;;;;;;;;32.90;1.00;;;;;;5028850;28;20575;-62
2022/06/11 09:56:59;;;;;;;1.73;0.98;;;32.70;1.00;;;;;;5007672;28;20032;-62
2022/06/11 09:59:30;;;;;;;1.48;0.80;;;32.70;1.00;;;;;;5007639;28;20058;-62
2022/06/11 10:02:06;;;;;;;2.58;0.90;;;32.50;1.00;;;;;;5033029;28;20041;-62
2022/06/11 10:04:35;;;;;;;2.92;0.93;;;32.50;1.00;;;;;;4975636;28;20033;-62
2022/06/11 10:07:11;;;;;;;2.80;1.10;;;32.40;1.00;;;;;;5032999;28;20028;-62
2022/06/11 10:09:43;;;;;;;2.20;1.02;;;32.60;1.00;;;;;;4997408;28;20037;-59
2022/06/11 10:12:21;;;;;;;1.95;1.00;;;32.40;1.00;;;;;;5033157;28;20072;-64
2022/06/11 10:15:11;;;;;;;2.83;0.95;;;32.60;1.00;;;;;;4995911;28;20017;-74
2022/06/11 10:17:42;;;;;;;2.60;1.08;;;32.90;1.00;;;;;;5013257;28;20084;-74
2022/06/11 10:20:35;;;;;;;3.10;1.00;;;32.80;1.00;;;;;;5030185;28;20021;-74
2022/06/11 10:23:31;;;;;;;1.40;0.90;;;33.00;1.00;;;;;;4993402;28;20109;-74
2022/06/11 10:25:59;;;;;;;;;;;33.00;1.00;;;;;;5005455;28;20041;-74
2022/06/11 10:28:34;;;;;;;1.55;1.20;;;32.50;1.00;;;;;;5032112;28;20380;-74
2022/06/11 10:31:03;;;;;;;2.50;1.10;;;32.40;1.00;;;;;;5005237;28;20091;-74
2022/06/11 10:33:41;;;;;;;3.50;1.10;;;32.30;1.00;;;;;;5031856;28;20120;-74
2022/06/11 10:36:14;;;;;;;3.97;1.27;;;32.40;1.00;;;;;;5006228;28;20033;-75
2022/06/11 10:39:04;;;;;;;3.50;1.27;;;32.20;1.00;;;;;;5030088;28;20029;-74
2022/06/11 10:41:46;;;;;;;1.25;0.90;;;32.20;1.00;;;;;;5023599;28;20067;-74
2022/06/11 10:44:23;;;;;;;3.30;1.08;;;32.50;1.00;;;;;;5010283;28;20021;-74
2022/06/11 10:46:49;;;;;;;2.15;1.10;;;32.60;1.00;;;;;;5033136;28;20117;-74
2022/06/11 10:49:17;;;;;;;1.70;0.80;;;32.70;1.00;;;;;;5010760;28;20057;-74
2022/06/11 10:51:58;;;;;;;3.83;1.42;;;32.90;1.00;;;;;;5012224;28;20033;-74
2022/06/11 10:54:25;;;;;;;1.00;0.70;;;33.00;1.00;;;;;;5005026;28;20103;-74
2022/06/11 10:56:56;;;;;;;2.20;1.00;;;32.80;1.00;;;;;;5014218;28;20156;-74
2022/06/11 10:59:32;;;;;;;1.92;1.10;;;33.00;1.00;;;;;;5004130;28;20112;-74
2022/06/11 11:02:11;;;;;;;0.98;0.80;;;33.10;1.00;;;;;;5032011;28;20049;-74
2022/06/11 11:04:53;;;;;;;2.10;1.00;;;33.10;1.00;;;;;;5008182;28;20025;-74
2022/06/11 11:07:20;;;;;;;1.65;0.95;;;33.30;1.00;;;;;;4992288;28;20394;-74
2022/06/11 11:09:46;;;;;;;2.53;1.13;;;33.40;1.00;;;;;;5028762;28;20033;-74
2022/06/11 11:12:24;;;;;;;1.05;0.80;;;33.40;1.00;;;;;;5012194;28;20041;-74
2022/06/11 11:15:21;;;;;;;1.48;0.80;;;33.60;1.00;;;;;;5011606;28;20021;-75
2022/06/11 11:17:52;;;;;;;1.75;1.00;;;33.60;1.00;;;;;;4991204;28;20038;-74
2022/06/11 11:20:37;;;;;;;2.65;1.10;;;33.40;1.00;;;;;;4999496;28;20041;-71
2022/06/11 11:23:06;;;;;;;1.52;0.85;;;33.00;1.00;;;;;;5010363;28;20022;-74
2022/06/11 11:25:38;;;;;;;2.28;1.10;;;32.60;1.00;;;;;;5012138;28;20063;-73
2022/06/11 11:28:05;;;;;;;4.68;1.52;;;32.40;1.00;;;;;;5029871;28;20531;-75
2022/06/11 11:30:37;;;;;;;2.50;1.13;;;32.10;1.00;;;;;;5014632;28;20038;-74
2022/06/11 11:33:24;;;;;;;3.22;1.33;;;32.30;1.00;;;;;;5010146;28;20030;-72
2022/06/11 11:36:03;;;;;;;3.55;1.20;;;32.30;1.00;;;;;;5027779;28;20030;-73
2022/06/11 11:38:28;;;;;;;1.15;0.82;;;32.30;1.00;;;;;;5029839;28;20032;-77
2022/06/11 11:40:57;;;;;;;1.88;0.82;;;32.20;1.00;;;;;;5009474;28;20042;-74
2022/06/11 11:43:31;;;;;;;3.58;1.15;;;32.10;1.00;;;;;;5010849;28;20389;-73
2022/06/11 11:46:00;;;;;;;2.85;1.00;;;32.00;1.00;;;;;;5004156;28;20033;-74
2022/06/11 11:48:45;;;;;;;2.45;0.70;;;31.90;1.00;;;;;;5030191;28;20026;-73
2022/06/11 11:51:18;;;;;;;;;;;31.80;1.00;;;;;;5007597;28;20571;-73
2022/06/11 11:53:54;;;;;;;1.17;0.90;;;31.50;1.00;;;;;;4990633;28;19910;-71
2022/06/11 11:56:31;;;;;;;0.98;0.80;;;31.30;1.00;;;;;;5009359;28;20034;-71
2022/06/11 11:59:01;;;;;;;2.58;1.00;;;31.20;1.00;;;;;;5010410;28;20033;-74
2022/06/11 12:01:29;;;;;;;1.30;0.80;;;31.20;1.00;;;;;;5005005;28;20405;-74
2022/06/11 12:04:25;;;;;;;0.88;0.80;;;31.40;1.00;;;;;;5010994;28;20037;-74
2022/06/11 12:06:54;;;;;;;3.45;0.88;;;31.50;1.00;;;;;;5001896;28;20046;-74
2022/06/11 12:09:29;;;;;;;1.00;0.70;;;31.40;1.00;;;;;;5030062;28;20032;-75
2022/06/11 12:12:09;;;;;;;1.40;0.75;;;31.30;1.00;;;;;;5004438;28;20022;-76
2022/06/11 12:15:01;;;;;;;2.92;1.02;;;31.30;1.00;;;;;;4991150;28;20077;-74
2022/06/11 12:17:41;;;;;;;3.22;1.00;;;31.20;1.00;;;;;;5008625;28;20391;-75
2022/06/11 12:20:15;;;;;;;1.25;0.80;;;31.20;1.00;;;;;;5028182;28;20033;-74
2022/06/11 12:22:52;;;;;;;2.83;1.23;;;31.30;1.00;;;;;;5030338;28;20442;-74
2022/06/11 12:25:49;;;;;;;1.27;0.70;;;31.50;1.00;;;;;;4993174;28;20031;-75
2022/06/11 12:28:20;;;;;;;1.17;0.90;;;31.70;1.00;;;;;;5028657;28;20128;-74
2022/06/11 12:30:48;;;;;;;2.10;1.00;;;31.80;1.00;;;;;;5000719;28;20049;-75
2022/06/11 12:33:15;;;;;;;1.25;0.90;;;32.10;1.00;;;;;;5030147;28;20052;-75
2022/06/11 12:36:00;;;;;;;1.48;0.70;;;32.20;1.00;;;;;;5008531;28;20069;-74
2022/06/11 12:38:48;;;;;;;1.50;1.38;;;32.40;1.00;;;;;;5010209;28;20037;-75
2022/06/11 12:41:37;;;;;;;3.13;0.95;;;32.60;1.00;;;;;;5015865;28;20106;-75
2022/06/11 12:44:35;;;;;;;1.63;0.90;;;32.40;1.00;;;;;;5027726;28;20033;-75
2022/06/11 12:47:30;;;;;;;1.27;0.82;;;32.20;1.00;;;;;;5029666;28;20485;-74
2022/06/11 12:50:05;;;;;;;0.63;0.63;;;32.00;1.00;;;;;;5000683;28;20116;-75
2022/06/11 12:52:43;;;;;;;1.88;0.88;;;31.60;1.00;;;;;;5029778;28;20052;-75
2022/06/11 12:55:24;;;;;;;2.08;1.30;;;31.40;1.00;;;;;;5002129;28;20035;-74
2022/06/11 12:58:05;;;;;;;1.33;0.80;;;31.00;1.00;;;;;;5026981;28;20113;-74
2022/06/11 13:00:39;;;;;;;1.05;0.80;;;30.80;1.00;;;;;;5003912;28;20025;-61
2022/06/11 13:03:11;;;;;;;1.27;0.77;;;30.50;1.00;;;;;;5006747;28;20072;-61
2022/06/11 13:06:17;;;;;;;1.52;0.80;;;30.20;1.00;;;;;;4989938;28;20291;-61
2022/06/11 13:08:43;;;;;;;;;;;30.00;1.00;;;;;;5012841;28;20091;-61
2022/06/11 13:11:11;;;;;;;;;;;29.60;1.00;;;;;;5028696;28;19913;-75
2022/06/11 13:14:06;;;;;;;1.10;0.82;;;29.40;1.00;;;;;;5006199;28;19909;-76
2022/06/11 13:16:58;;;;;;;2.40;0.88;;;29.20;1.40;;;;;;4990053;28;20121;-76
2022/06/11 13:19:47;;;;;;;2.13;0.93;;;29.00;1.20;;;;;;5028829;28;20448;-74
2022/06/11 13:22:22;;;;;;;3.63;1.20;;;29.00;1.30;;;;;;5001004;28;20056;-75
2022/06/11 13:24:53;;;;;;;1.95;0.90;;;29.00;1.60;;;;;;5029595;28;20386;-74